Time;durP1;ratioP1;P1;durP2;ratioP2;P2;SDS_P1;SDS_P2;PMS_P1;PMS_P2;Temp;Humidity;BMP_temperature;BMP_pressure;BME280_temperature;BME280_humidity;BME280_pressure;Samples;Min_cycle;Max_cycle;Signal;HPM_P1;HPM_P2
2022/09/05 00:01:46;;;;;;;0.10;0.10;;;;;;;;;;5049770;28;20032;-80
2022/09/05 00:04:12;;;;;;;0.20;0.20;;;;;;;;;;5042680;28;20431;-80
2022/09/05 00:06:43;;;;;;;0.57;0.57;;;;;;;;;;5041420;28;20136;-80
2022/09/05 00:09:18;;;;;;;0.30;0.30;;;;;;;;;;5037849;28;20492;-79
2022/09/05 00:11:48;;;;;;;0.20;0.20;;;;;;;;;;5019486;28;20427;-80
2022/09/05 00:14:26;;;;;;;0.28;0.28;;;;;;;;;;5045317;28;20041;-80
2022/09/05 00:17:02;;;;;;;0.25;0.25;;;;;;;;;;5024550;28;20385;-88
2022/09/05 00:19:37;;;;;;;0.30;0.30;;;;;;;;;;5042269;28;20036;-86
2022/09/05 00:22:10;;;;;;;0.20;0.20;;;;;;;;;;5033434;28;20044;-83
2022/09/05 00:24:44;;;;;;;0.22;0.22;;;;;;;;;;5015738;28;20029;-84
2022/09/05 00:27:25;;;;;;;0.20;0.20;;;;;;;;;;5039577;28;20032;-83
2022/09/05 00:30:06;;;;;;;0.20;0.20;;;;;;;;;;5018302;28;20075;-84
2022/09/05 00:32:32;;;;;;;0.20;0.20;;;;;;;;;;5015651;28;20029;-82
2022/09/05 00:35:10;;;;;;;0.30;0.30;;;;;;;;;;5043573;28;20186;-89
2022/09/05 00:37:40;;;;;;;0.20;0.20;;;;;;;;;;5053194;28;20028;-89
2022/09/05 00:40:09;;;;;;;0.30;0.30;;;;;;;;;;5035373;28;20131;-89
2022/09/05 00:42:34;;;;;;;0.30;0.30;;;;;;;;;;5035495;28;20024;-89
2022/09/05 00:45:02;;;;;;;0.20;0.20;;;;;;;;;;5053027;28;20270;-89
2022/09/05 00:47:42;;;;;;;0.10;0.10;;;;;;;;;;5052461;28;20112;-90
2022/09/05 00:50:14;;;;;;;0.20;0.20;;;;;;;;;;5018742;28;20032;-89
2022/09/05 00:52:57;;;;;;;6.57;6.13;;;;;;;;;;5035010;28;20033;-87
2022/09/05 00:55:35;;;;;;;0.10;0.10;;;;;;;;;;5016762;28;20029;-87
2022/09/05 00:58:03;;;;;;;0.40;0.40;;;;;;;;;;5053158;28;20029;-87
2022/09/05 01:00:43;;;;;;;0.20;0.20;;;;;;;;;;5052980;28;20554;-88
2022/09/05 01:03:09;;;;;;;0.30;0.30;;;;;;;;;;5032912;28;20058;-88
2022/09/05 01:05:53;;;;;;;12.43;7.57;;;;;;;;;;5052446;28;20130;-85
2022/09/05 01:08:18;;;;;;;0.20;0.20;;;;;;;;;;5035393;28;20041;-82
2022/09/05 01:10:47;;;;;;;0.20;0.20;;;;;;;;;;5052736;28;20112;-86
2022/09/05 01:13:31;;;;;;;0.20;0.20;;;;;;;;;;5053898;28;20540;-81
2022/09/05 01:16:11;;;;;;;0.20;0.20;;;;;;;;;;5055687;28;20495;-90
2022/09/05 01:18:46;;;;;;;0.20;0.20;;;;;;;;;;5056339;28;20131;-90
2022/09/05 01:21:17;;;;;;;0.25;0.25;;;;;;;;;;5056626;28;20070;-89
2022/09/05 01:24:01;;;;;;;0.25;0.25;;;;;;;;;;5038826;28;20040;-85
2022/09/05 01:26:30;;;;;;;0.25;0.25;;;;;;;;;;5056329;28;20036;-85
2022/09/05 01:29:09;;;;;;;0.22;0.22;;;;;;;;;;5056328;28;20040;-87
2022/09/05 01:31:53;;;;;;;0.20;0.20;;;;;;;;;;5038523;28;20383;-86
2022/09/05 01:34:30;;;;;;;0.30;0.30;;;;;;;;;;5021240;28;20435;-83
2022/09/05 01:37:14;;;;;;;0.20;0.20;;;;;;;;;;5038227;28;20029;-84
2022/09/05 01:39:45;;;;;;;0.20;0.20;;;;;;;;;;5038446;28;20033;-83
2022/09/05 01:42:16;;;;;;;0.20;0.20;;;;;;;;;;5055933;28;20021;-84
2022/09/05 01:45:05;;;;;;;0.30;0.30;;;;;;;;;;5057670;28;20081;-87
2022/09/05 01:47:47;;;;;;;0.30;0.30;;;;;;;;;;5053471;28;20068;-91
2022/09/05 01:50:19;;;;;;;1.70;1.15;;;;;;;;;;5071762;28;20059;-91
2022/09/05 01:52:54;;;;;;;0.20;0.20;;;;;;;;;;5050190;28;20090;-92
2022/09/05 01:55:39;;;;;;;0.20;0.20;;;;;;;;;;5071090;28;20112;-90
2022/09/05 01:58:25;;;;;;;0.20;0.20;;;;;;;;;;5044354;28;20111;-90
2022/09/05 02:01:13;;;;;;;0.68;0.68;;;;;;;;;;5058014;28;20104;-85
2022/09/05 02:03:47;;;;;;;0.20;0.20;;;;;;;;;;5057332;28;20088;-90
2022/09/05 02:06:39;;;;;;;0.20;0.20;;;;;;;;;;5038756;28;20049;-85
2022/09/05 02:09:16;;;;;;;0.30;0.30;;;;;;;;;;5054172;28;20044;-88
2022/09/05 02:11:45;;;;;;;0.20;0.20;;;;;;;;;;5057654;28;20033;-88
2022/09/05 02:14:31;;;;;;;0.20;0.20;;;;;;;;;;5060151;28;20021;-89
2022/09/05 02:17:07;;;;;;;0.20;0.20;;;;;;;;;;5031291;28;20115;-91
2022/09/05 02:19:39;;;;;;;0.20;0.20;;;;;;;;;;5055646;28;20033;-84
2022/09/05 02:22:04;;;;;;;0.20;0.20;;;;;;;;;;5020912;28;20033;-88
2022/09/05 02:24:40;;;;;;;0.20;0.20;;;;;;;;;;5037312;28;20362;-88
2022/09/05 02:27:24;;;;;;;0.20;0.20;;;;;;;;;;5037479;28;20044;-85
2022/09/05 02:29:50;;;;;;;17.50;5.85;;;;;;;;;;5020504;28;20032;-86
2022/09/05 02:32:16;;;;;;;0.22;0.22;;;;;;;;;;5037301;28;20472;-86
2022/09/05 02:34:49;;;;;;;1.20;1.02;;;;;;;;;;5054989;28;20032;-86
2022/09/05 02:37:15;;;;;;;0.20;0.20;;;;;;;;;;5053537;28;20040;-84
2022/09/05 02:39:50;;;;;;;0.20;0.20;;;;;;;;;;5020638;28;20029;-85
2022/09/05 02:42:28;;;;;;;0.22;0.22;;;;;;;;;;5037269;28;20039;-85
2022/09/05 02:44:59;;;;;;;0.17;0.17;;;;;;;;;;5020606;28;20082;-84
2022/09/05 02:47:30;;;;;;;0.20;0.20;;;;;;;;;;5054531;28;20041;-83
2022/09/05 02:50:01;;;;;;;0.10;0.10;;;;;;;;;;5054622;28;20111;-84
2022/09/05 02:52:29;;;;;;;0.10;0.10;;;;;;;;;;5054627;28;20032;-84
2022/09/05 02:54:55;;;;;;;0.15;0.15;;;;;;;;;;5054403;28;20021;-83
2022/09/05 02:57:27;;;;;;;0.22;0.22;;;;;;;;;;5036587;28;20090;-83
2022/09/05 03:00:10;;;;;;;0.20;0.20;;;;;;;;;;5036644;28;20494;-83
2022/09/05 03:02:39;;;;;;;0.20;0.20;;;;;;;;;;5039822;28;20082;-89
2022/09/05 03:05:09;;;;;;;0.20;0.20;;;;;;;;;;5057488;28;20036;-88
2022/09/05 03:07:49;;;;;;;0.43;0.43;;;;;;;;;;5018726;28;20045;-86
2022/09/05 03:10:24;;;;;;;0.28;0.28;;;;;;;;;;5049975;28;20108;-87
2022/09/05 03:13:08;;;;;;;0.20;0.20;;;;;;;;;;5050419;28;20052;-86
2022/09/05 03:15:39;;;;;;;0.20;0.20;;;;;;;;;;5050339;28;20053;-86
2022/09/05 03:18:14;;;;;;;0.20;0.20;;;;;;;;;;5015760;28;20384;-87
2022/09/05 03:21:00;;;;;;;0.40;0.40;;;;;;;;;;5050329;28;20476;-81
2022/09/05 03:23:37;;;;;;;0.20;0.20;;;;;;;;;;5050571;28;20029;-85
2022/09/05 03:26:15;;;;;;;0.65;0.32;;;;;;;;;;5032737;28;20044;-84
2022/09/05 03:29:01;;;;;;;0.30;0.30;;;;;;;;;;5050397;28;20108;-85
2022/09/05 03:31:36;;;;;;;0.20;0.20;;;;;;;;;;5031851;28;20033;-84
2022/09/05 03:34:08;;;;;;;0.20;0.20;;;;;;;;;;5031965;28;20033;-81
2022/09/05 03:36:52;;;;;;;0.73;0.45;;;;;;;;;;5031503;28;20025;-81
2022/09/05 03:39:33;;;;;;;0.20;0.20;;;;;;;;;;5050145;28;20506;-80
2022/09/05 03:42:17;;;;;;;0.20;0.20;;;;;;;;;;5031951;28;20029;-82
2022/09/05 03:44:52;;;;;;;0.20;0.20;;;;;;;;;;5031704;28;20110;-83
2022/09/05 03:47:41;;;;;;;0.20;0.20;;;;;;;;;;5031922;28;20087;-82
2022/09/05 03:50:16;;;;;;;0.38;0.38;;;;;;;;;;5047724;28;20033;-91
2022/09/05 03:52:48;;;;;;;0.10;0.10;;;;;;;;;;5039811;28;20529;-90
2022/09/05 03:55:32;;;;;;;0.20;0.20;;;;;;;;;;5057344;28;20017;-89
2022/09/05 03:58:00;;;;;;;2.78;2.55;;;;;;;;;;5037767;28;20040;-91
2022/09/05 04:00:32;;;;;;;0.20;0.20;;;;;;;;;;5038418;28;20120;-90
2022/09/05 04:03:04;;;;;;;0.10;0.10;;;;;;;;;;5059112;28;20115;-86
2022/09/05 04:05:34;;;;;;;0.20;0.20;;;;;;;;;;5033533;28;20108;-85
2022/09/05 04:08:00;;;;;;;0.20;0.20;;;;;;;;;;5032904;28;20060;-88
2022/09/05 04:10:30;;;;;;;0.20;0.20;;;;;;;;;;5051126;28;20051;-89
2022/09/05 04:13:06;;;;;;;0.20;0.20;;;;;;;;;;5049475;28;20028;-80
2022/09/05 04:15:32;;;;;;;0.20;0.20;;;;;;;;;;5048479;28;20056;-83
2022/09/05 04:18:04;;;;;;;0.30;0.30;;;;;;;;;;5049117;28;20040;-83
2022/09/05 04:20:36;;;;;;;0.32;0.32;;;;;;;;;;5049485;28;20060;-88
2022/09/05 04:23:10;;;;;;;0.20;0.20;;;;;;;;;;5031551;28;20033;-87
2022/09/05 04:25:54;;;;;;;0.30;0.30;;;;;;;;;;5031562;28;20041;-82
2022/09/05 04:28:29;;;;;;;0.20;0.20;;;;;;;;;;5049230;28;20033;-82
2022/09/05 04:30:57;;;;;;;0.13;0.13;;;;;;;;;;5049167;28;20048;-84
2022/09/05 04:33:25;;;;;;;0.20;0.20;;;;;;;;;;5049187;28;20025;-86
2022/09/05 04:35:57;;;;;;;0.20;0.20;;;;;;;;;;5031302;28;20507;-84
2022/09/05 04:38:36;;;;;;;0.47;0.47;;;;;;;;;;5033452;28;20032;-84
2022/09/05 04:41:02;;;;;;;;;;;;;;;;;;5056089;28;20024;-84
2022/09/05 04:43:45;;;;;;;0.10;0.10;;;;;;;;;;5037952;28;19915;-87
2022/09/05 04:46:14;;;;;;;0.20;0.20;;;;;;;;;;5051640;28;20040;-88
2022/09/05 04:48:44;;;;;;;0.20;0.20;;;;;;;;;;5052114;28;20036;-88
2022/09/05 04:51:30;;;;;;;0.20;0.20;;;;;;;;;;5036307;28;20028;-86
2022/09/05 04:54:14;;;;;;;0.10;0.10;;;;;;;;;;5023983;28;20391;-82
2022/09/05 04:56:43;;;;;;;0.10;0.10;;;;;;;;;;5035501;28;20044;-85
2022/09/05 04:59:16;;;;;;;0.20;0.20;;;;;;;;;;5053113;28;20032;-81
2022/09/05 05:01:46;;;;;;;0.22;0.22;;;;;;;;;;5033260;28;20481;-80
2022/09/05 05:04:15;;;;;;;0.20;0.20;;;;;;;;;;5052707;28;20035;-79
2022/09/05 05:07:00;;;;;;;0.20;0.20;;;;;;;;;;5051080;28;20060;-83
2022/09/05 05:09:29;;;;;;;0.20;0.20;;;;;;;;;;5033875;28;20120;-76
2022/09/05 05:11:56;;;;;;;0.23;0.23;;;;;;;;;;5049402;28;20033;-74
2022/09/05 05:14:22;;;;;;;0.30;0.30;;;;;;;;;;5046705;28;20037;-74
2022/09/05 05:16:51;;;;;;;0.20;0.20;;;;;;;;;;5033917;28;20078;-75
2022/09/05 05:19:28;;;;;;;0.30;0.30;;;;;;;;;;5050571;28;20033;-76
2022/09/05 05:21:55;;;;;;;2.83;2.63;;;;;;;;;;5051243;28;20123;-74
2022/09/05 05:24:28;;;;;;;0.22;0.22;;;;;;;;;;5052171;28;20075;-74
2022/09/05 05:26:53;;;;;;;0.20;0.20;;;;;;;;;;5033934;28;20068;-75
2022/09/05 05:29:28;;;;;;;0.20;0.20;;;;;;;;;;5033726;28;20465;-74
2022/09/05 05:31:58;;;;;;;0.20;0.20;;;;;;;;;;5051640;28;20025;-74
2022/09/05 05:34:30;;;;;;;1.00;1.00;;;;;;;;;;5034268;28;20033;-76
2022/09/05 05:37:02;;;;;;;0.20;0.20;;;;;;;;;;5033604;28;20135;-74
2022/09/05 05:39:28;;;;;;;0.20;0.20;;;;;;;;;;5033140;28;20029;-75
2022/09/05 05:41:54;;;;;;;0.55;0.55;;;;;;;;;;5032622;28;20035;-75
2022/09/05 05:44:26;;;;;;;0.10;0.10;;;;;;;;;;5051194;28;20025;-75
2022/09/05 05:46:57;;;;;;;0.20;0.20;;;;;;;;;;5048807;28;20075;-74
2022/09/05 05:49:39;;;;;;;0.13;0.13;;;;;;;;;;5049745;28;20036;-71
2022/09/05 05:52:16;;;;;;;0.20;0.20;;;;;;;;;;5049330;28;20036;-74
2022/09/05 05:54:50;;;;;;;0.40;0.40;;;;;;;;;;5039522;28;20025;-74
2022/09/05 05:57:35;;;;;;;0.30;0.30;;;;;;;;;;5040853;28;20025;-76
2022/09/05 06:00:21;;;;;;;0.20;0.20;;;;;;;;;;5033094;28;20025;-76
2022/09/05 06:02:50;;;;;;;0.25;0.25;;;;;;;;;;5044016;28;20033;-74
2022/09/05 06:05:34;;;;;;;0.30;0.30;;;;;;;;;;5051646;28;20380;-75
2022/09/05 06:08:00;;;;;;;0.20;0.20;;;;;;;;;;5051224;28;20049;-75
2022/09/05 06:10:28;;;;;;;0.20;0.20;;;;;;;;;;5050754;28;20052;-74
2022/09/05 06:13:01;;;;;;;0.87;0.87;;;;;;;;;;5051716;28;20032;-76
2022/09/05 06:15:48;;;;;;;0.20;0.20;;;;;;;;;;5050939;28;20052;-75
2022/09/05 06:18:13;;;;;;;0.20;0.20;;;;;;;;;;5051423;28;20530;-77
2022/09/05 06:20:58;;;;;;;0.17;0.17;;;;;;;;;;5049753;28;20025;-77
2022/09/05 06:23:29;;;;;;;0.20;0.20;;;;;;;;;;5050039;28;20075;-76
2022/09/05 06:26:06;;;;;;;0.20;0.20;;;;;;;;;;5051604;28;20033;-75
2022/09/05 06:28:32;;;;;;;6.20;4.20;;;;;;;;;;5032976;28;20037;-75
2022/09/05 06:31:17;;;;;;;0.20;0.20;;;;;;;;;;5050853;28;20029;-74
2022/09/05 06:33:52;;;;;;;0.20;0.20;;;;;;;;;;5050453;28;20032;-73
2022/09/05 06:36:29;;;;;;;0.25;0.25;;;;;;;;;;5051046;28;20514;-76
2022/09/05 06:39:12;;;;;;;0.25;0.25;;;;;;;;;;5018748;28;20386;-75
2022/09/05 06:42:00;;;;;;;0.20;0.20;;;;;;;;;;5049965;28;20029;-75
2022/09/05 06:44:27;;;;;;;0.30;0.30;;;;;;;;;;5049965;28;20029;-76
2022/09/05 06:46:54;;;;;;;0.52;0.52;;;;;;;;;;5048919;28;20129;-75
2022/09/05 06:49:28;;;;;;;0.20;0.20;;;;;;;;;;5050120;28;20063;-75
2022/09/05 06:52:03;;;;;;;2.72;1.80;;;;;;;;;;5048108;28;20027;-76
2022/09/05 06:54:28;;;;;;;0.30;0.30;;;;;;;;;;5031889;28;20029;-74
2022/09/05 06:57:12;;;;;;;0.25;0.25;;;;;;;;;;5050739;28;20036;-74
2022/09/05 06:59:53;;;;;;;0.30;0.30;;;;;;;;;;5050443;28;20112;-73
2022/09/05 07:02:21;;;;;;;0.20;0.20;;;;;;;;;;5038625;28;20029;-73
2022/09/05 07:05:17;;;;;;;0.30;0.30;;;;;;;;;;5050693;28;20103;-74
2022/09/05 07:07:42;;;;;;;0.40;0.40;;;;;;;;;;5029460;28;20044;-73
2022/09/05 07:10:09;;;;;;;0.30;0.30;;;;;;;;;;5049930;28;20021;-73
2022/09/05 07:12:45;;;;;;;0.30;0.30;;;;;;;;;;5032341;28;20036;-74
2022/09/05 07:15:19;;;;;;;0.20;0.20;;;;;;;;;;5032223;28;20031;-73
2022/09/05 07:17:45;;;;;;;0.30;0.30;;;;;;;;;;5030460;28;20024;-74
2022/09/05 07:20:21;;;;;;;0.30;0.30;;;;;;;;;;5030592;28;20036;-73
2022/09/05 07:22:53;;;;;;;0.35;0.35;;;;;;;;;;5031747;28;20025;-73
2022/09/05 07:25:22;;;;;;;0.40;0.40;;;;;;;;;;5043636;28;20361;-73
2022/09/05 07:27:47;;;;;;;0.40;0.40;;;;;;;;;;5047346;28;20353;-73
2022/09/05 07:30:16;;;;;;;0.47;0.47;;;;;;;;;;5049235;28;20037;-73
2022/09/05 07:32:44;;;;;;;0.30;0.30;;;;;;;;;;5047758;28;20603;-71
2022/09/05 07:35:19;;;;;;;0.28;0.28;;;;;;;;;;5028671;28;20332;-73
2022/09/05 07:37:46;;;;;;;0.20;0.20;;;;;;;;;;5046524;28;20051;-73
2022/09/05 07:40:16;;;;;;;0.30;0.30;;;;;;;;;;5046664;28;20037;-73
2022/09/05 07:42:44;;;;;;;0.40;0.40;;;;;;;;;;5047180;28;20032;-72
2022/09/05 07:45:21;;;;;;;0.30;0.30;;;;;;;;;;5046985;28;20063;-72
2022/09/05 07:47:52;;;;;;;0.30;0.30;;;;;;;;;;5028807;28;20076;-73
2022/09/05 07:50:19;;;;;;;0.30;0.30;;;;;;;;;;5048079;28;20025;-73
2022/09/05 07:52:45;;;;;;;0.43;0.43;;;;;;;;;;5048031;28;20104;-73
2022/09/05 07:55:16;;;;;;;0.40;0.40;;;;;;;;;;5047819;28;20075;-73
2022/09/05 07:57:46;;;;;;;0.40;0.40;;;;;;;;;;5047601;28;20118;-73
2022/09/05 08:00:18;;;;;;;0.40;0.40;;;;;;;;;;4997451;28;20025;-72
2022/09/05 08:02:47;;;;;;;0.30;0.30;;;;;;;;;;5049038;28;20021;-72
2022/09/05 08:05:14;;;;;;;0.30;0.30;;;;;;;;;;5049447;28;20033;-73
2022/09/05 08:07:42;;;;;;;0.30;0.30;;;;;;;;;;5049312;28;20056;-73
2022/09/05 08:10:16;;;;;;;0.30;0.30;;;;;;;;;;5032177;28;20037;-73
2022/09/05 08:12:48;;;;;;;0.30;0.30;;;;;;;;;;5049458;28;20415;-74
2022/09/05 08:15:21;;;;;;;0.40;0.40;;;;;;;;;;5049895;28;20104;-74
2022/09/05 08:18:09;;;;;;;0.30;0.30;;;;;;;;;;5049347;28;20029;-72
2022/09/05 08:20:41;;;;;;;0.30;0.30;;;;;;;;;;5049232;28;20039;-72
2022/09/05 08:23:20;;;;;;;0.30;0.30;;;;;;;;;;5052364;28;20024;-72
2022/09/05 08:25:49;;;;;;;0.30;0.30;;;;;;;;;;5035230;28;20894;-75
2022/09/05 08:28:21;;;;;;;0.63;0.63;;;;;;;;;;5053671;28;20024;-73
2022/09/05 08:31:02;;;;;;;1.05;0.65;;;;;;;;;;5053466;28;20060;-73
2022/09/05 08:33:33;;;;;;;0.40;0.40;;;;;;;;;;5035110;28;20460;-74
2022/09/05 08:36:02;;;;;;;0.35;0.35;;;;;;;;;;5053374;28;20054;-73
2022/09/05 08:38:31;;;;;;;0.82;0.82;;;;;;;;;;5053149;28;20025;-73
2022/09/05 08:41:32;;;;;;;1.02;0.93;;;;;;;;;;5052856;28;20039;-74
2022/09/05 08:44:17;;;;;;;0.40;0.40;;;;;;;;;;5009195;28;20037;-73
2022/09/05 08:46:47;;;;;;;0.38;0.38;;;;;;;;;;5030136;28;20507;-74
2022/09/05 08:49:15;;;;;;;0.38;0.38;;;;;;;;;;5031909;28;20055;-74
2022/09/05 08:51:47;;;;;;;0.30;0.30;;;;;;;;;;5033796;28;20036;-72
2022/09/05 08:54:33;;;;;;;0.40;0.40;;;;;;;;;;5041950;28;20110;-74
2022/09/05 08:57:17;;;;;;;0.40;0.40;;;;;;;;;;5051850;28;20443;-73
2022/09/05 09:00:00;;;;;;;0.40;0.40;;;;;;;;;;5052477;28;20155;-73
2022/09/05 09:02:37;;;;;;;0.40;0.40;;;;;;;;;;5033445;28;20461;-72
2022/09/05 09:05:06;;;;;;;0.40;0.40;;;;;;;;;;5032538;28;20021;-74
2022/09/05 09:07:31;;;;;;;;;;;;;;;;;;5017133;28;20052;-74
2022/09/05 09:10:33;;;;;;;0.40;0.40;;;;;;;;;;5037494;28;19924;-74
2022/09/05 09:13:22;;;;;;;0.40;0.40;;;;;;;;;;4970959;28;20038;-74
2022/09/05 09:15:47;;;;;;;0.40;0.40;;;;;;;;;;5037452;28;20125;-73
2022/09/05 09:18:14;;;;;;;0.50;0.50;;;;;;;;;;5051098;28;20103;-73
2022/09/05 09:20:48;;;;;;;0.47;0.47;;;;;;;;;;5056527;28;20229;-74
2022/09/05 09:23:19;;;;;;;0.50;0.50;;;;;;;;;;5056122;28;20115;-73
2022/09/05 09:25:51;;;;;;;0.40;0.40;;;;;;;;;;5054207;28;20090;-73
2022/09/05 09:28:35;;;;;;;0.40;0.40;;;;;;;;;;5052168;28;20083;-73
2022/09/05 09:31:05;;;;;;;0.40;0.40;;;;;;;;;;5052050;28;20029;-74
2022/09/05 09:33:43;;;;;;;0.40;0.40;;;;;;;;;;5033121;28;20044;-73
2022/09/05 09:36:32;;;;;;;0.40;0.40;;;;;;;;;;5034649;28;20064;-74
2022/09/05 09:39:03;;;;;;;0.40;0.40;;;;;;;;;;5052034;28;20415;-73
2022/09/05 09:41:58;;;;;;;0.52;0.52;;;;;;;;;;5051321;28;20033;-72
2022/09/05 09:44:26;;;;;;;0.50;0.50;;;;;;;;;;5034501;28;20040;-72
2022/09/05 09:46:52;;;;;;;0.53;0.53;;;;;;;;;;5051595;28;20037;-74
2022/09/05 09:49:21;;;;;;;0.47;0.47;;;;;;;;;;5034111;28;20362;-72
2022/09/05 09:51:46;;;;;;;0.40;0.40;;;;;;;;;;5051640;28;20021;-72
2022/09/05 09:54:31;;;;;;;0.40;0.40;;;;;;;;;;5051288;28;20499;-72
2022/09/05 09:57:15;;;;;;;0.40;0.40;;;;;;;;;;5051318;28;20558;-74
2022/09/05 09:59:52;;;;;;;0.52;0.52;;;;;;;;;;5051280;28;20550;-73
2022/09/05 10:02:37;;;;;;;1.67;1.40;;;;;;;;;;5051653;28;20029;-73
2022/09/05 10:05:05;;;;;;;0.43;0.43;;;;;;;;;;5051532;28;20095;-72
2022/09/05 10:08:04;;;;;;;0.60;0.60;;;;;;;;;;5050776;28;20052;-74
2022/09/05 10:10:41;;;;;;;1.00;0.88;;;;;;;;;;5007680;28;20051;-74
2022/09/05 10:13:22;;;;;;;0.70;0.70;;;;;;;;;;5051238;28;20037;-71
2022/09/05 10:15:50;;;;;;;0.40;0.40;;;;;;;;;;5051176;28;20041;-73
2022/09/05 10:18:19;;;;;;;0.45;0.45;;;;;;;;;;5032605;28;20075;-72
2022/09/05 10:20:59;;;;;;;0.40;0.40;;;;;;;;;;5016913;28;20451;-72
2022/09/05 10:23:37;;;;;;;0.65;0.65;;;;;;;;;;5030710;28;20468;-72
2022/09/05 10:26:05;;;;;;;0.57;0.57;;;;;;;;;;5031112;28;20026;-74
2022/09/05 10:28:41;;;;;;;0.60;0.60;;;;;;;;;;5049832;28;20052;-73
2022/09/05 10:31:20;;;;;;;0.40;0.40;;;;;;;;;;5044733;28;20586;-74
2022/09/05 10:33:45;;;;;;;0.45;0.45;;;;;;;;;;5040981;28;20037;-72
2022/09/05 10:36:14;;;;;;;0.50;0.50;;;;;;;;;;5050003;28;20032;-72
2022/09/05 10:38:42;;;;;;;0.60;0.60;;;;;;;;;;5050636;28;20698;-72
2022/09/05 10:41:13;;;;;;;3.78;1.55;;;;;;;;;;5033501;28;20537;-72
2022/09/05 10:44:00;;;;;;;0.82;0.82;;;;;;;;;;5031110;28;20036;-71
2022/09/05 10:46:35;;;;;;;0.40;0.40;;;;;;;;;;5047340;28;20094;-73
2022/09/05 10:49:06;;;;;;;0.40;0.40;;;;;;;;;;5049028;28;20037;-73
2022/09/05 10:51:47;;;;;;;0.50;0.50;;;;;;;;;;5048673;28;20028;-74
2022/09/05 10:54:18;;;;;;;0.50;0.50;;;;;;;;;;5048533;28;20548;-74
2022/09/05 10:56:46;;;;;;;0.60;0.60;;;;;;;;;;5048572;28;20137;-73
2022/09/05 10:59:27;;;;;;;0.52;0.52;;;;;;;;;;5050257;28;20055;-73
2022/09/05 11:01:57;;;;;;;0.80;0.80;;;;;;;;;;5050483;28;20533;-72
2022/09/05 11:04:38;;;;;;;1.38;1.10;;;;;;;;;;5050602;28;20035;-74
2022/09/05 11:07:13;;;;;;;0.50;0.50;;;;;;;;;;5049922;28;20132;-71
2022/09/05 11:09:48;;;;;;;0.57;0.57;;;;;;;;;;5049937;28;20543;-72
2022/09/05 11:12:18;;;;;;;0.60;0.60;;;;;;;;;;5050376;28;20148;-73
2022/09/05 11:14:49;;;;;;;0.60;0.60;;;;;;;;;;5049683;28;20112;-74
2022/09/05 11:17:23;;;;;;;1.38;0.90;;;;;;;;;;5032471;28;20043;-73
2022/09/05 11:19:57;;;;;;;0.50;0.50;;;;;;;;;;5050375;28;20440;-73
2022/09/05 11:22:23;;;;;;;0.50;0.50;;;;;;;;;;5050234;28;20036;-72
2022/09/05 11:24:57;;;;;;;0.60;0.60;;;;;;;;;;5049973;28;20060;-72
2022/09/05 11:27:28;;;;;;;35.78;21.65;;;;;;;;;;5049843;28;20037;-73
2022/09/05 11:29:57;;;;;;;4.03;1.15;;;;;;;;;;5032113;28;20111;-72
2022/09/05 11:32:34;;;;;;;0.93;0.93;;;;;;;;;;5047171;28;20059;-71
2022/09/05 11:35:09;;;;;;;0.40;0.40;;;;;;;;;;5047679;28;20605;-73
2022/09/05 11:37:40;;;;;;;0.40;0.40;;;;;;;;;;5048034;28;20086;-71
2022/09/05 11:40:21;;;;;;;1.17;0.75;;;;;;;;;;5031071;28;20039;-73
2022/09/05 11:43:05;;;;;;;0.60;0.60;;;;;;;;;;5031988;28;20056;-71
2022/09/05 11:45:49;;;;;;;0.50;0.50;;;;;;;;;;5048631;28;20029;-72
2022/09/05 11:48:38;;;;;;;0.88;0.88;;;;;;;;;;5047670;28;20076;-71
2022/09/05 11:51:22;;;;;;;3.03;1.05;;;;;;;;;;5034008;28;20033;-72
2022/09/05 11:53:59;;;;;;;0.50;0.50;;;;;;;;;;5047529;28;20071;-71
2022/09/05 11:56:47;;;;;;;3.08;2.28;;;;;;;;;;5047636;28;20383;-72
2022/09/05 11:59:49;;;;;;;0.57;0.57;;;;;;;;;;5046836;28;20484;-72
2022/09/05 12:02:33;;;;;;;0.70;0.70;;;;;;;;;;4949220;29;20046;-73
2022/09/05 12:05:21;;;;;;;2.08;1.98;;;;;;;;;;5041062;28;20041;-72
2022/09/05 12:08:06;;;;;;;0.50;0.50;;;;;;;;;;5049497;28;20484;-72
2022/09/05 12:10:36;;;;;;;0.50;0.50;;;;;;;;;;5049188;28;20595;-72
2022/09/05 12:13:15;;;;;;;0.63;0.63;;;;;;;;;;5049370;28;20070;-72
2022/09/05 12:15:45;;;;;;;0.73;0.73;;;;;;;;;;5049234;28;20278;-70
2022/09/05 12:18:29;;;;;;;1.75;0.85;;;;;;;;;;5047994;28;20033;-71
2022/09/05 12:21:01;;;;;;;1.73;1.52;;;;;;;;;;5049109;28;20087;-73
2022/09/05 12:23:47;;;;;;;0.70;0.70;;;;;;;;;;5049266;28;20109;-71
2022/09/05 12:26:16;;;;;;;1.80;0.95;;;;;;;;;;5049508;28;20049;-71
2022/09/05 12:28:41;;;;;;;0.75;0.73;;;;;;;;;;5044496;28;20075;-72
2022/09/05 12:31:10;;;;;;;1.92;1.38;;;;;;;;;;5048758;28;20041;-71
2022/09/05 12:33:36;;;;;;;1.85;1.70;;;;;;;;;;5048698;28;20441;-72
2022/09/05 12:36:09;;;;;;;1.02;0.93;;;;;;;;;;5048695;28;20029;-71
2022/09/05 12:38:35;;;;;;;0.57;0.55;;;;;;;;;;5044148;28;20519;-72
2022/09/05 12:41:06;;;;;;;0.98;0.82;;;;;;;;;;5027598;28;20060;-71
2022/09/05 12:43:34;;;;;;;2.30;2.10;;;;;;;;;;5044998;28;20032;-71
2022/09/05 12:46:15;;;;;;;0.40;0.40;;;;;;;;;;5028015;28;20029;-73
2022/09/05 12:48:53;;;;;;;6.00;1.42;;;;;;;;;;5029971;28;20491;-72
2022/09/05 12:51:20;;;;;;;0.90;0.75;;;;;;;;;;5009393;28;20018;-71
2022/09/05 12:53:49;;;;;;;0.77;0.77;;;;;;;;;;5006955;28;20060;-73
2022/09/05 12:56:15;;;;;;;1.77;1.13;;;;;;;;;;5039315;28;20033;-71
2022/09/05 12:58:42;;;;;;;2.35;0.70;;;;;;;;;;5035485;28;20537;-71
2022/09/05 13:01:17;;;;;;;0.60;0.60;;;;;;;;;;5047620;28;20064;-69
2022/09/05 13:03:48;;;;;;;0.70;0.70;;;;;;;;;;5038904;28;20033;-70
2022/09/05 13:06:24;;;;;;;0.50;0.50;;;;;;;;;;5027484;28;20057;-72
2022/09/05 13:08:52;;;;;;;3.10;2.90;;;;;;;;;;5036602;28;20480;-70
2022/09/05 13:11:18;;;;;;;2.63;1.10;;;;;;;;;;5021623;28;20025;-72
2022/09/05 13:13:47;;;;;;;0.57;0.57;;;;;;;;;;5041244;28;20060;-71
2022/09/05 13:16:18;;;;;;;0.50;0.50;;;;;;;;;;5043796;28;20484;-72
2022/09/05 13:18:45;;;;;;;5.45;1.42;;;;;;;;;;5025214;28;20446;-70
2022/09/05 13:21:19;;;;;;;5.38;1.75;;;;;;;;;;5046432;28;20029;-71
2022/09/05 13:23:47;;;;;;;0.60;0.60;;;;;;;;;;5043859;28;20055;-71
2022/09/05 13:26:22;;;;;;;0.60;0.60;;;;;;;;;;5041883;28;20787;-71
2022/09/05 13:28:51;;;;;;;0.70;0.70;;;;;;;;;;5006825;28;20064;-72
2022/09/05 13:31:35;;;;;;;1.75;0.90;;;;;;;;;;5040337;28;20515;-69
2022/09/05 13:34:02;;;;;;;1.98;0.98;;;;;;;;;;5028857;28;20548;-70
2022/09/05 13:36:29;;;;;;;8.73;1.25;;;;;;;;;;5045234;28;20029;-71
2022/09/05 13:39:09;;;;;;;5.82;1.48;;;;;;;;;;5045648;28;20068;-71
2022/09/05 13:41:36;;;;;;;1.17;0.93;;;;;;;;;;5036784;28;20061;-70
2022/09/05 13:44:10;;;;;;;2.35;0.93;;;;;;;;;;5031060;28;20415;-72
2022/09/05 13:46:37;;;;;;;1.30;0.73;;;;;;;;;;5031524;28;20454;-70
2022/09/05 13:49:09;;;;;;;0.60;0.60;;;;;;;;;;5048742;28;20060;-72
2022/09/05 13:52:04;;;;;;;2.90;1.40;;;;;;;;;;5050333;28;20037;-72
2022/09/05 13:54:39;;;;;;;0.63;0.63;;;;;;;;;;5013740;28;20484;-72
2022/09/05 13:57:14;;;;;;;1.30;0.82;;;;;;;;;;5049992;28;20407;-72
2022/09/05 13:59:41;;;;;;;0.40;0.40;;;;;;;;;;5050919;28;20035;-71
2022/09/05 14:02:26;;;;;;;1.38;0.57;;;;;;;;;;5054890;28;20028;-71
2022/09/05 14:05:00;;;;;;;1.92;0.80;;;;;;;;;;5058395;28;20025;-71
2022/09/05 14:07:36;;;;;;;0.40;0.40;;;;;;;;;;5054401;28;20681;-71
2022/09/05 14:10:10;;;;;;;4.22;1.27;;;;;;;;;;5050484;28;20032;-72
2022/09/05 14:12:36;;;;;;;1.17;1.02;;;;;;;;;;5051661;28;20025;-72
2022/09/05 14:15:01;;;;;;;1.75;0.63;;;;;;;;;;5051668;28;20044;-71
2022/09/05 14:17:29;;;;;;;0.20;0.20;;;;;;;;;;5050934;28;20024;-71
2022/09/05 14:22:39;;;;;;;2.22;1.13;;;;;;;;;;5050583;28;20048;-71
2022/09/05 14:25:09;;;;;;;3.38;1.33;;;;;;;;;;5051042;28;20056;-72
2022/09/05 14:27:38;;;;;;;1.23;0.85;;;;;;;;;;5049965;28;20044;-71
2022/09/05 14:30:04;;;;;;;1.85;1.75;;;;;;;;;;5033257;28;20036;-72
2022/09/05 14:32:36;;;;;;;3.25;1.27;;;;;;;;;;5033448;28;20456;-71
2022/09/05 14:35:06;;;;;;;3.58;1.60;;;;;;;;;;5033636;28;20146;-71
2022/09/05 14:37:53;;;;;;;1.33;0.82;;;;;;;;;;5050973;28;20032;-71
2022/09/05 14:40:19;;;;;;;0.40;0.40;;;;;;;;;;5050968;28;20124;-71
2022/09/05 14:42:44;;;;;;;0.50;0.50;;;;;;;;;;5050733;28;20483;-73
2022/09/05 14:45:35;;;;;;;3.92;1.38;;;;;;;;;;5033121;28;20132;-70
2022/09/05 14:48:10;;;;;;;1.10;1.00;;;;;;;;;;5045928;28;20039;-72
2022/09/05 14:50:56;;;;;;;0.50;0.50;;;;;;;;;;5041639;28;20380;-72
2022/09/05 14:53:27;;;;;;;0.40;0.40;;;;;;;;;;5044780;28;20439;-72
2022/09/05 14:56:00;;;;;;;2.75;0.80;;;;;;;;;;5050203;28;20020;-72
2022/09/05 14:58:27;;;;;;;1.10;1.00;;;;;;;;;;5037459;28;20561;-71
2022/09/05 15:00:57;;;;;;;0.57;0.57;;;;;;;;;;5041586;28;20031;-72
2022/09/05 15:03:35;;;;;;;1.42;1.10;;;;;;;;;;5023428;28;20185;-71
2022/09/05 15:06:11;;;;;;;5.78;1.20;;;;;;;;;;5036550;28;20041;-73
2022/09/05 15:08:36;;;;;;;0.40;0.40;;;;;;;;;;5039718;28;20049;-72
2022/09/05 15:11:06;;;;;;;0.60;0.60;;;;;;;;;;5037462;28;20049;-73
2022/09/05 15:13:33;;;;;;;1.85;0.70;;;;;;;;;;5037887;28;20104;-72
2022/09/05 15:16:09;;;;;;;0.40;0.40;;;;;;;;;;5023297;28;20131;-71
2022/09/05 15:18:38;;;;;;;2.05;0.88;;;;;;;;;;5030648;28;20028;-72
2022/09/05 15:21:16;;;;;;;1.45;1.10;;;;;;;;;;5048297;28;20297;-72
2022/09/05 15:23:41;;;;;;;1.17;1.02;;;;;;;;;;5047706;28;20067;-72
2022/09/05 15:26:17;;;;;;;0.40;0.40;;;;;;;;;;5048818;28;20108;-73
2022/09/05 15:28:44;;;;;;;0.90;0.90;;;;;;;;;;5049942;28;20044;-72